sensor_id;sensor_type;location;lat;lon;timestamp;pressure;altitude;pressure_sealevel;temperature;humidity
12785;BME280;6456;42.680;23.260;2023-07-31T00:00:06;94326.28;;;22.53;94.54
12785;BME280;6456;42.680;23.260;2023-07-31T00:02:35;94215.66;;;21.64;95.18
12785;BME280;6456;42.680;23.260;2023-07-31T00:05:02;94324.28;;;22.45;95.52
12785;BME280;6456;42.680;23.260;2023-07-31T00:07:29;94227.25;;;21.79;96.56
12785;BME280;6456;42.680;23.260;2023-07-31T00:09:57;94286.97;;;21.98;96.79
12785;BME280;6456;42.680;23.260;2023-07-31T00:12:23;94341.22;;;22.27;99.80
12785;BME280;6456;42.680;23.260;2023-07-31T00:14:50;94328.13;;;22.07;100.00
12785;BME280;6456;42.680;23.260;2023-07-31T00:17:18;94348.94;;;22.10;100.00
12785;BME280;6456;42.680;23.260;2023-07-31T00:19:46;94270.16;;;21.55;100.00
12785;BME280;6456;42.680;23.260;2023-07-31T00:22:15;94331.22;;;21.95;100.00
12785;BME280;6456;42.680;23.260;2023-07-31T00:24:42;94195.53;;;21.11;100.00
12785;BME280;6456;42.680;23.260;2023-07-31T00:27:09;94318.91;;;21.94;100.00
12785;BME280;6456;42.680;23.260;2023-07-31T00:29:39;94313.34;;;21.91;100.00
12785;BME280;6456;42.680;23.260;2023-07-31T00:32:06;94310.56;;;21.96;100.00
12785;BME280;6456;42.680;23.260;2023-07-31T00:34:33;94288.22;;;21.87;100.00
12785;BME280;6456;42.680;23.260;2023-07-31T00:37:02;94179.63;;;21.20;100.00
12785;BME280;6456;42.680;23.260;2023-07-31T00:39:30;94207.72;;;21.41;100.00
12785;BME280;6456;42.680;23.260;2023-07-31T00:41:57;94297.34;;;21.86;100.00
12785;BME280;6456;42.680;23.260;2023-07-31T00:44:23;94242.56;;;21.54;100.00
12785;BME280;6456;42.680;23.260;2023-07-31T00:46:50;94277.69;;;21.71;100.00
12785;BME280;6456;42.680;23.260;2023-07-31T00:49:17;94308.53;;;21.88;100.00
12785;BME280;6456;42.680;23.260;2023-07-31T00:51:44;94235.78;;;21.43;100.00
12785;BME280;6456;42.680;23.260;2023-07-31T00:54:13;94267.31;;;21.65;100.00
12785;BME280;6456;42.680;23.260;2023-07-31T00:56:40;94198.91;;;21.22;100.00
12785;BME280;6456;42.680;23.260;2023-07-31T00:59:08;94301.94;;;21.80;100.00
12785;BME280;6456;42.680;23.260;2023-07-31T01:01:35;94253.38;;;21.49;100.00
12785;BME280;6456;42.680;23.260;2023-07-31T01:04:02;94272.03;;;21.54;100.00
12785;BME280;6456;42.680;23.260;2023-07-31T01:06:35;94203.50;;;21.16;100.00
12785;BME280;6456;42.680;23.260;2023-07-31T01:09:06;94306.63;;;21.69;100.00
12785;BME280;6456;42.680;23.260;2023-07-31T01:11:45;94173.47;;;20.77;100.00
12785;BME280;6456;42.680;23.260;2023-07-31T01:14:14;94165.25;;;20.73;100.00
12785;BME280;6456;42.680;23.260;2023-07-31T01:16:41;94294.03;;;21.51;100.00
12785;BME280;6456;42.680;23.260;2023-07-31T01:19:09;94223.81;;;21.17;100.00
12785;BME280;6456;42.680;23.260;2023-07-31T01:22:02;94247.13;;;21.17;100.00
12785;BME280;6456;42.680;23.260;2023-07-31T01:24:42;94300.09;;;21.38;100.00
12785;BME280;6456;42.680;23.260;2023-07-31T01:27:21;94238.00;;;20.94;100.00
12785;BME280;6456;42.680;23.260;2023-07-31T01:29:55;94289.00;;;21.26;100.00
12785;BME280;6456;42.680;23.260;2023-07-31T01:32:23;94277.78;;;21.24;100.00
12785;BME280;6456;42.680;23.260;2023-07-31T01:34:52;94296.59;;;21.19;100.00
12785;BME280;6456;42.680;23.260;2023-07-31T01:37:19;94275.06;;;21.05;100.00
12785;BME280;6456;42.680;23.260;2023-07-31T01:39:46;94278.53;;;21.06;100.00
12785;BME280;6456;42.680;23.260;2023-07-31T01:42:12;94264.44;;;20.95;100.00
12785;BME280;6456;42.680;23.260;2023-07-31T01:44:41;94270.31;;;20.97;100.00
12785;BME280;6456;42.680;23.260;2023-07-31T01:47:08;94236.47;;;20.64;100.00
12785;BME280;6456;42.680;23.260;2023-07-31T01:49:35;94202.69;;;20.44;100.00
12785;BME280;6456;42.680;23.260;2023-07-31T01:52:02;94252.59;;;20.78;100.00
12785;BME280;6456;42.680;23.260;2023-07-31T01:54:29;94221.50;;;20.34;100.00
12785;BME280;6456;42.680;23.260;2023-07-31T01:56:56;94211.88;;;20.38;100.00
12785;BME280;6456;42.680;23.260;2023-07-31T01:59:23;94246.34;;;20.64;100.00
12785;BME280;6456;42.680;23.260;2023-07-31T02:01:51;94170.41;;;20.12;100.00
12785;BME280;6456;42.680;23.260;2023-07-31T02:04:18;94299.03;;;20.87;100.00
12785;BME280;6456;42.680;23.260;2023-07-31T02:06:45;94265.78;;;20.69;100.00
12785;BME280;6456;42.680;23.260;2023-07-31T02:09:11;94291.59;;;20.84;100.00
12785;BME280;6456;42.680;23.260;2023-07-31T02:11:38;94297.09;;;20.92;100.00
12785;BME280;6456;42.680;23.260;2023-07-31T02:14:05;94214.03;;;20.36;100.00
12785;BME280;6456;42.680;23.260;2023-07-31T02:16:32;94304.00;;;20.98;100.00
12785;BME280;6456;42.680;23.260;2023-07-31T02:19:00;94243.50;;;20.55;100.00
12785;BME280;6456;42.680;23.260;2023-07-31T02:21:27;94306.88;;;21.02;100.00
12785;BME280;6456;42.680;23.260;2023-07-31T02:23:54;94258.31;;;20.71;100.00
12785;BME280;6456;42.680;23.260;2023-07-31T02:26:20;94304.81;;;20.99;100.00
12785;BME280;6456;42.680;23.260;2023-07-31T02:28:47;94214.94;;;20.51;100.00
12785;BME280;6456;42.680;23.260;2023-07-31T02:31:14;94220.84;;;20.48;100.00
12785;BME280;6456;42.680;23.260;2023-07-31T02:33:41;94304.13;;;21.12;100.00
12785;BME280;6456;42.680;23.260;2023-07-31T02:36:09;94208.41;;;20.62;100.00
12785;BME280;6456;42.680;23.260;2023-07-31T02:38:36;94246.03;;;20.94;100.00
12785;BME280;6456;42.680;23.260;2023-07-31T02:41:02;94284.84;;;21.15;100.00
12785;BME280;6456;42.680;23.260;2023-07-31T02:43:28;94292.25;;;21.23;100.00
12785;BME280;6456;42.680;23.260;2023-07-31T02:45:55;94230.09;;;20.84;100.00
12785;BME280;6456;42.680;23.260;2023-07-31T02:48:22;94198.91;;;20.74;100.00
12785;BME280;6456;42.680;23.260;2023-07-31T02:50:49;94185.88;;;20.68;100.00
12785;BME280;6456;42.680;23.260;2023-07-31T02:53:17;94284.31;;;21.37;100.00
12785;BME280;6456;42.680;23.260;2023-07-31T02:55:44;94313.84;;;21.50;100.00
12785;BME280;6456;42.680;23.260;2023-07-31T02:58:11;94299.53;;;21.41;100.00
12785;BME280;6456;42.680;23.260;2023-07-31T03:00:42;94181.91;;;20.65;100.00
12785;BME280;6456;42.680;23.260;2023-07-31T03:03:09;94287.56;;;21.34;100.00
12785;BME280;6456;42.680;23.260;2023-07-31T03:05:35;94258.09;;;21.15;100.00
12785;BME280;6456;42.680;23.260;2023-07-31T03:08:05;94229.78;;;20.85;100.00
12785;BME280;6456;42.680;23.260;2023-07-31T03:10:35;94216.53;;;20.75;100.00
12785;BME280;6456;42.680;23.260;2023-07-31T03:13:02;94240.66;;;20.94;100.00
12785;BME280;6456;42.680;23.260;2023-07-31T03:15:28;94216.44;;;20.62;100.00
12785;BME280;6456;42.680;23.260;2023-07-31T03:17:55;94245.09;;;20.80;100.00
12785;BME280;6456;42.680;23.260;2023-07-31T03:20:22;94315.53;;;21.23;100.00
12785;BME280;6456;42.680;23.260;2023-07-31T03:22:49;94241.63;;;20.79;100.00
12785;BME280;6456;42.680;23.260;2023-07-31T03:25:16;94255.69;;;20.90;100.00
12785;BME280;6456;42.680;23.260;2023-07-31T03:27:44;94330.47;;;21.47;100.00
12785;BME280;6456;42.680;23.260;2023-07-31T03:30:11;94264.75;;;20.94;100.00
12785;BME280;6456;42.680;23.260;2023-07-31T03:32:38;94246.34;;;20.87;100.00
12785;BME280;6456;42.680;23.260;2023-07-31T03:35:05;94347.34;;;21.48;100.00
12785;BME280;6456;42.680;23.260;2023-07-31T03:37:32;94316.31;;;21.23;100.00
12785;BME280;6456;42.680;23.260;2023-07-31T03:39:59;94261.59;;;20.87;100.00
12785;BME280;6456;42.680;23.260;2023-07-31T03:42:26;94282.03;;;21.01;100.00
12785;BME280;6456;42.680;23.260;2023-07-31T03:44:54;94214.13;;;20.50;100.00
12785;BME280;6456;42.680;23.260;2023-07-31T03:47:21;94340.28;;;21.33;100.00
12785;BME280;6456;42.680;23.260;2023-07-31T03:49:48;94342.66;;;21.35;100.00
12785;BME280;6456;42.680;23.260;2023-07-31T03:52:14;94285.59;;;20.92;100.00
12785;BME280;6456;42.680;23.260;2023-07-31T03:54:41;94338.81;;;21.22;100.00
12785;BME280;6456;42.680;23.260;2023-07-31T03:57:10;94330.06;;;21.17;100.00
12785;BME280;6456;42.680;23.260;2023-07-31T03:59:36;94375.47;;;21.45;100.00
12785;BME280;6456;42.680;23.260;2023-07-31T04:02:06;94348.81;;;21.35;100.00
12785;BME280;6456;42.680;23.260;2023-07-31T04:04:32;94256.13;;;20.73;100.00
12785;BME280;6456;42.680;23.260;2023-07-31T04:06:59;94357.59;;;21.41;100.00
12785;BME280;6456;42.680;23.260;2023-07-31T04:09:26;94377.59;;;21.48;100.00
12785;BME280;6456;42.680;23.260;2023-07-31T04:11:53;94372.69;;;21.55;100.00
12785;BME280;6456;42.680;23.260;2023-07-31T04:14:20;94292.13;;;21.09;100.00
12785;BME280;6456;42.680;23.260;2023-07-31T04:16:47;94240.41;;;20.67;100.00
12785;BME280;6456;42.680;23.260;2023-07-31T04:19:15;94287.22;;;20.93;100.00
12785;BME280;6456;42.680;23.260;2023-07-31T04:21:42;94262.38;;;20.87;100.00
12785;BME280;6456;42.680;23.260;2023-07-31T04:24:09;94291.00;;;21.16;100.00
12785;BME280;6456;42.680;23.260;2023-07-31T04:26:36;94279.03;;;21.08;100.00
12785;BME280;6456;42.680;23.260;2023-07-31T04:29:03;94349.47;;;21.69;100.00
12785;BME280;6456;42.680;23.260;2023-07-31T04:31:30;94304.44;;;21.34;100.00
12785;BME280;6456;42.680;23.260;2023-07-31T04:33:57;94285.53;;;21.26;100.00
12785;BME280;6456;42.680;23.260;2023-07-31T04:36:25;94322.38;;;21.52;100.00
12785;BME280;6456;42.680;23.260;2023-07-31T04:38:52;94325.06;;;21.52;100.00
12785;BME280;6456;42.680;23.260;2023-07-31T04:41:19;94291.09;;;21.29;100.00
12785;BME280;6456;42.680;23.260;2023-07-31T04:43:45;94313.28;;;21.53;100.00
12785;BME280;6456;42.680;23.260;2023-07-31T04:46:12;94329.78;;;21.60;100.00
12785;BME280;6456;42.680;23.260;2023-07-31T04:48:39;94343.19;;;21.79;100.00
12785;BME280;6456;42.680;23.260;2023-07-31T04:51:06;94285.03;;;21.42;100.00
12785;BME280;6456;42.680;23.260;2023-07-31T04:53:34;94283.09;;;21.48;100.00
12785;BME280;6456;42.680;23.260;2023-07-31T04:56:02;94370.19;;;22.06;100.00
12785;BME280;6456;42.680;23.260;2023-07-31T04:58:29;94287.31;;;21.54;100.00
12785;BME280;6456;42.680;23.260;2023-07-31T05:00:56;94346.22;;;21.96;100.00
12785;BME280;6456;42.680;23.260;2023-07-31T05:03:22;94301.94;;;21.80;100.00
12785;BME280;6456;42.680;23.260;2023-07-31T05:05:49;94291.50;;;21.60;100.00
12785;BME280;6456;42.680;23.260;2023-07-31T05:08:16;94262.41;;;21.53;100.00
12785;BME280;6456;42.680;23.260;2023-07-31T05:10:45;94358.09;;;22.09;100.00
12785;BME280;6456;42.680;23.260;2023-07-31T05:13:12;94255.03;;;21.45;100.00
12785;BME280;6456;42.680;23.260;2023-07-31T05:15:39;94290.56;;;21.69;100.00
12785;BME280;6456;42.680;23.260;2023-07-31T05:18:07;94210.84;;;21.29;100.00
12785;BME280;6456;42.680;23.260;2023-07-31T05:20:34;94327.94;;;21.98;100.00
12785;BME280;6456;42.680;23.260;2023-07-31T05:23:01;94309.81;;;21.71;100.00
12785;BME280;6456;42.680;23.260;2023-07-31T05:25:28;94379.53;;;22.09;100.00
12785;BME280;6456;42.680;23.260;2023-07-31T05:27:56;94239.88;;;21.17;100.00
12785;BME280;6456;42.680;23.260;2023-07-31T05:30:23;94292.44;;;21.50;100.00
12785;BME280;6456;42.680;23.260;2023-07-31T05:32:50;94292.06;;;21.57;100.00
12785;BME280;6456;42.680;23.260;2023-07-31T05:35:17;94361.03;;;22.07;100.00
12785;BME280;6456;42.680;23.260;2023-07-31T05:37:44;94364.31;;;22.04;100.00
12785;BME280;6456;42.680;23.260;2023-07-31T05:40:11;94252.41;;;21.40;100.00
12785;BME280;6456;42.680;23.260;2023-07-31T05:42:38;94385.53;;;22.19;100.00
12785;BME280;6456;42.680;23.260;2023-07-31T05:45:07;94328.09;;;21.88;100.00
12785;BME280;6456;42.680;23.260;2023-07-31T05:47:34;94260.75;;;21.57;100.00
12785;BME280;6456;42.680;23.260;2023-07-31T05:50:01;94358.72;;;22.01;100.00
12785;BME280;6456;42.680;23.260;2023-07-31T05:52:28;94304.59;;;21.80;100.00
12785;BME280;6456;42.680;23.260;2023-07-31T05:54:55;94378.28;;;22.39;100.00
12785;BME280;6456;42.680;23.260;2023-07-31T05:57:22;94375.38;;;22.35;100.00
12785;BME280;6456;42.680;23.260;2023-07-31T05:59:49;94329.91;;;22.11;100.00
12785;BME280;6456;42.680;23.260;2023-07-31T06:02:18;94281.81;;;21.64;100.00
12785;BME280;6456;42.680;23.260;2023-07-31T06:04:45;94392.47;;;22.39;100.00
12785;BME280;6456;42.680;23.260;2023-07-31T06:07:12;94388.69;;;22.40;100.00
12785;BME280;6456;42.680;23.260;2023-07-31T06:09:39;94365.03;;;22.28;98.35
12785;BME280;6456;42.680;23.260;2023-07-31T06:12:06;94323.91;;;22.01;100.00
12785;BME280;6456;42.680;23.260;2023-07-31T06:14:34;94289.66;;;21.98;100.00
12785;BME280;6456;42.680;23.260;2023-07-31T06:17:01;94288.78;;;22.02;97.42
12785;BME280;6456;42.680;23.260;2023-07-31T06:19:29;94263.81;;;22.07;95.86
12785;BME280;6456;42.680;23.260;2023-07-31T06:21:56;94377.91;;;22.96;95.16
12785;BME280;6456;42.680;23.260;2023-07-31T06:24:23;94380.38;;;22.92;94.44
12785;BME280;6456;42.680;23.260;2023-07-31T06:26:50;94396.81;;;23.05;94.73
12785;BME280;6456;42.680;23.260;2023-07-31T06:29:17;94366.31;;;22.68;94.88
12785;BME280;6456;42.680;23.260;2023-07-31T06:31:44;94264.16;;;22.00;95.29
12785;BME280;6456;42.680;23.260;2023-07-31T06:34:11;94380.94;;;22.76;96.05
12785;BME280;6456;42.680;23.260;2023-07-31T06:36:39;94298.81;;;22.29;96.21
12785;BME280;6456;42.680;23.260;2023-07-31T06:39:06;94373.25;;;23.02;94.56
12785;BME280;6456;42.680;23.260;2023-07-31T06:41:33;94289.41;;;22.31;95.02
12785;BME280;6456;42.680;23.260;2023-07-31T06:43:59;94284.06;;;22.45;96.54
12785;BME280;6456;42.680;23.260;2023-07-31T06:46:26;94316.22;;;22.64;96.42
12785;BME280;6456;42.680;23.260;2023-07-31T06:48:53;94390.81;;;23.40;93.92
12785;BME280;6456;42.680;23.260;2023-07-31T06:51:20;94382.97;;;23.57;91.99
12785;BME280;6456;42.680;23.260;2023-07-31T06:53:49;94287.88;;;23.04;90.86
12785;BME280;6456;42.680;23.260;2023-07-31T06:56:15;94374.75;;;23.35;89.29
12785;BME280;6456;42.680;23.260;2023-07-31T06:58:42;94420.75;;;23.60;89.43
12785;BME280;6456;42.680;23.260;2023-07-31T07:01:09;94309.31;;;22.90;89.45
12785;BME280;6456;42.680;23.260;2023-07-31T07:03:36;94407.78;;;23.35;89.17
12785;BME280;6456;42.680;23.260;2023-07-31T07:06:03;94359.59;;;22.84;91.70
12785;BME280;6456;42.680;23.260;2023-07-31T07:08:30;94257.50;;;22.30;88.28
12785;BME280;6456;42.680;23.260;2023-07-31T07:10:58;94327.53;;;22.42;92.10
12785;BME280;6456;42.680;23.260;2023-07-31T07:13:25;94346.22;;;22.47;91.94
12785;BME280;6456;42.680;23.260;2023-07-31T07:15:55;94298.19;;;22.18;92.41
12785;BME280;6456;42.680;23.260;2023-07-31T07:18:22;94317.25;;;22.17;91.55
12785;BME280;6456;42.680;23.260;2023-07-31T07:20:51;94338.09;;;22.52;91.90
12785;BME280;6456;42.680;23.260;2023-07-31T07:23:18;94343.25;;;22.67;90.61
12785;BME280;6456;42.680;23.260;2023-07-31T07:25:47;94319.47;;;22.79;88.48
12785;BME280;6456;42.680;23.260;2023-07-31T07:28:15;94326.16;;;23.09;86.30
12785;BME280;6456;42.680;23.260;2023-07-31T07:30:42;94393.13;;;23.46;86.58
12785;BME280;6456;42.680;23.260;2023-07-31T07:33:09;94297.63;;;23.00;84.50
12785;BME280;6456;42.680;23.260;2023-07-31T07:35:37;94363.16;;;23.53;82.17
12785;BME280;6456;42.680;23.260;2023-07-31T07:38:03;94355.31;;;23.43;81.93
12785;BME280;6456;42.680;23.260;2023-07-31T07:40:30;94383.97;;;23.61;82.84
12785;BME280;6456;42.680;23.260;2023-07-31T07:42:57;94423.84;;;23.68;82.86
12785;BME280;6456;42.680;23.260;2023-07-31T07:45:27;94293.66;;;22.97;81.98
12785;BME280;6456;42.680;23.260;2023-07-31T07:47:54;94381.78;;;23.63;84.31
12785;BME280;6456;42.680;23.260;2023-07-31T07:50:21;94387.31;;;23.80;84.13
12785;BME280;6456;42.680;23.260;2023-07-31T07:52:47;94327.38;;;23.44;83.13
12785;BME280;6456;42.680;23.260;2023-07-31T07:55:14;94364.47;;;23.42;77.89
12785;BME280;6456;42.680;23.260;2023-07-31T07:57:41;94401.50;;;23.72;79.95
12785;BME280;6456;42.680;23.260;2023-07-31T08:00:10;94413.13;;;23.81;82.05
12785;BME280;6456;42.680;23.260;2023-07-31T08:02:38;94276.94;;;23.00;81.56
12785;BME280;6456;42.680;23.260;2023-07-31T08:05:06;94421.84;;;24.00;82.73
12785;BME280;6456;42.680;23.260;2023-07-31T08:07:33;94414.78;;;23.91;78.16
12785;BME280;6456;42.680;23.260;2023-07-31T08:09:59;94424.75;;;24.04;78.03
12785;BME280;6456;42.680;23.260;2023-07-31T08:12:26;94409.59;;;24.21;78.65
12785;BME280;6456;42.680;23.260;2023-07-31T08:14:53;94319.50;;;23.75;76.87
12785;BME280;6456;42.680;23.260;2023-07-31T08:17:20;94389.38;;;24.24;75.32
12785;BME280;6456;42.680;23.260;2023-07-31T08:19:48;94369.31;;;24.08;75.27
12785;BME280;6456;42.680;23.260;2023-07-31T08:22:15;94333.63;;;23.67;74.30
12785;BME280;6456;42.680;23.260;2023-07-31T08:24:42;94369.69;;;24.01;76.63
12785;BME280;6456;42.680;23.260;2023-07-31T08:27:09;94278.09;;;23.35;75.69
12785;BME280;6456;42.680;23.260;2023-07-31T08:29:36;94374.84;;;24.25;75.43
12785;BME280;6456;42.680;23.260;2023-07-31T08:32:04;94317.47;;;24.07;73.86
12785;BME280;6456;42.680;23.260;2023-07-31T08:34:31;94324.50;;;24.17;72.55
12785;BME280;6456;42.680;23.260;2023-07-31T08:36:59;94411.88;;;24.64;72.62
12785;BME280;6456;42.680;23.260;2023-07-31T08:39:26;94374.00;;;24.60;72.18
12785;BME280;6456;42.680;23.260;2023-07-31T08:41:58;94406.53;;;24.86;72.70
12785;BME280;6456;42.680;23.260;2023-07-31T08:44:25;94322.75;;;24.35;71.31
12785;BME280;6456;42.680;23.260;2023-07-31T08:46:52;94406.25;;;24.88;70.16
12785;BME280;6456;42.680;23.260;2023-07-31T08:49:20;94401.09;;;25.00;69.66
12785;BME280;6456;42.680;23.260;2023-07-31T08:51:49;94386.81;;;24.99;69.59
12785;BME280;6456;42.680;23.260;2023-07-31T08:54:18;94343.53;;;24.65;67.72
12785;BME280;6456;42.680;23.260;2023-07-31T08:56:45;94400.28;;;24.99;67.49
12785;BME280;6456;42.680;23.260;2023-07-31T08:59:13;94412.75;;;25.17;66.25
12785;BME280;6456;42.680;23.260;2023-07-31T09:01:44;94341.91;;;24.77;65.81
12785;BME280;6456;42.680;23.260;2023-07-31T09:04:16;94409.03;;;25.05;65.80
12785;BME280;6456;42.680;23.260;2023-07-31T09:06:45;94354.31;;;24.87;65.22
12785;BME280;6456;42.680;23.260;2023-07-31T09:09:14;94306.00;;;24.82;65.98
12785;BME280;6456;42.680;23.260;2023-07-31T09:11:42;94337.22;;;25.22;63.89
12785;BME280;6456;42.680;23.260;2023-07-31T09:14:10;94368.56;;;25.18;67.42
12785;BME280;6456;42.680;23.260;2023-07-31T09:16:51;94390.56;;;25.42;67.33
12785;BME280;6456;42.680;23.260;2023-07-31T09:19:25;94384.56;;;25.45;67.77
12785;BME280;6456;42.680;23.260;2023-07-31T09:21:52;94256.94;;;24.85;65.11
12785;BME280;6456;42.680;23.260;2023-07-31T09:24:27;94372.94;;;25.76;63.75
12785;BME280;6456;42.680;23.260;2023-07-31T09:26:59;94318.66;;;25.52;65.71
12785;BME280;6456;42.680;23.260;2023-07-31T09:29:27;94376.47;;;25.85;64.20
12785;BME280;6456;42.680;23.260;2023-07-31T09:31:55;94344.84;;;25.60;64.98
12785;BME280;6456;42.680;23.260;2023-07-31T09:34:30;94360.44;;;25.80;64.47
12785;BME280;6456;42.680;23.260;2023-07-31T09:37:06;94251.53;;;25.24;64.14
12785;BME280;6456;42.680;23.260;2023-07-31T09:39:45;94297.78;;;25.57;62.53
12785;BME280;6456;42.680;23.260;2023-07-31T09:42:14;94379.06;;;26.16;62.27
12785;BME280;6456;42.680;23.260;2023-07-31T09:44:41;94264.38;;;25.27;62.87
12785;BME280;6456;42.680;23.260;2023-07-31T09:47:21;94328.59;;;25.99;61.21
12785;BME280;6456;42.680;23.260;2023-07-31T09:49:49;94330.00;;;25.79;60.82
12785;BME280;6456;42.680;23.260;2023-07-31T09:52:16;94361.91;;;26.03;60.12
12785;BME280;6456;42.680;23.260;2023-07-31T09:54:43;94372.47;;;26.30;60.50
12785;BME280;6456;42.680;23.260;2023-07-31T09:57:10;94367.03;;;26.39;61.21
12785;BME280;6456;42.680;23.260;2023-07-31T09:59:39;94353.56;;;26.22;61.16
12785;BME280;6456;42.680;23.260;2023-07-31T10:02:08;94362.91;;;26.41;60.36
12785;BME280;6456;42.680;23.260;2023-07-31T10:04:42;94330.38;;;26.12;59.78
12785;BME280;6456;42.680;23.260;2023-07-31T10:07:13;94354.19;;;26.19;58.40
12785;BME280;6456;42.680;23.260;2023-07-31T10:09:40;94285.78;;;25.41;59.53
12785;BME280;6456;42.680;23.260;2023-07-31T10:12:09;94336.19;;;25.80;58.86
12785;BME280;6456;42.680;23.260;2023-07-31T10:14:41;94305.84;;;25.66;58.90
12785;BME280;6456;42.680;23.260;2023-07-31T10:17:08;94306.84;;;25.78;57.88
12785;BME280;6456;42.680;23.260;2023-07-31T10:19:35;94328.13;;;25.97;59.42
12785;BME280;6456;42.680;23.260;2023-07-31T10:22:03;94368.78;;;26.26;57.82
12785;BME280;6456;42.680;23.260;2023-07-31T10:24:31;94326.06;;;26.11;59.50
12785;BME280;6456;42.680;23.260;2023-07-31T10:27:00;94352.75;;;26.38;57.96
12785;BME280;6456;42.680;23.260;2023-07-31T10:29:29;94235.50;;;25.67;56.89
12785;BME280;6456;42.680;23.260;2023-07-31T10:32:01;94305.78;;;26.31;56.17
12785;BME280;6456;42.680;23.260;2023-07-31T10:34:28;94291.53;;;26.30;55.70
12785;BME280;6456;42.680;23.260;2023-07-31T10:37:20;94332.94;;;26.43;53.98
12785;BME280;6456;42.680;23.260;2023-07-31T10:39:56;94318.97;;;26.58;55.15
12785;BME280;6456;42.680;23.260;2023-07-31T10:42:28;94292.44;;;26.51;54.26
12785;BME280;6456;42.680;23.260;2023-07-31T10:44:57;94327.69;;;26.46;53.95
12785;BME280;6456;42.680;23.260;2023-07-31T10:47:25;94292.47;;;26.34;55.34
12785;BME280;6456;42.680;23.260;2023-07-31T10:50:18;94326.91;;;26.80;51.68
12785;BME280;6456;42.680;23.260;2023-07-31T10:52:49;94319.22;;;26.99;50.31
12785;BME280;6456;42.680;23.260;2023-07-31T10:55:28;94308.00;;;26.80;51.48
12785;BME280;6456;42.680;23.260;2023-07-31T10:57:57;94308.25;;;26.96;50.62
12785;BME280;6456;42.680;23.260;2023-07-31T11:00:26;94253.19;;;26.71;49.29
12785;BME280;6456;42.680;23.260;2023-07-31T11:03:04;94309.84;;;27.05;48.63
12785;BME280;6456;42.680;23.260;2023-07-31T11:08:30;94222.94;;;26.48;48.82
12785;BME280;6456;42.680;23.260;2023-07-31T11:11:07;94315.13;;;27.31;47.53
12785;BME280;6456;42.680;23.260;2023-07-31T11:13:41;94241.25;;;26.98;46.58
12785;BME280;6456;42.680;23.260;2023-07-31T11:16:12;94291.75;;;27.44;48.59
12785;BME280;6456;42.680;23.260;2023-07-31T11:18:41;94315.16;;;27.40;46.77
12785;BME280;6456;42.680;23.260;2023-07-31T11:21:11;94299.97;;;27.18;48.00
12785;BME280;6456;42.680;23.260;2023-07-31T11:23:38;94317.66;;;27.36;52.00
12785;BME280;6456;42.680;23.260;2023-07-31T11:26:06;94192.91;;;26.58;53.30
12785;BME280;6456;42.680;23.260;2023-07-31T11:28:34;94274.06;;;27.17;52.77
12785;BME280;6456;42.680;23.260;2023-07-31T11:31:02;94279.13;;;27.18;52.66
12785;BME280;6456;42.680;23.260;2023-07-31T11:33:29;94303.91;;;27.20;51.43
12785;BME280;6456;42.680;23.260;2023-07-31T11:36:00;94195.06;;;26.10;54.24
12785;BME280;6456;42.680;23.260;2023-07-31T11:38:29;94221.41;;;26.22;54.74
12785;BME280;6456;42.680;23.260;2023-07-31T11:41:00;94319.25;;;26.73;55.04
12785;BME280;6456;42.680;23.260;2023-07-31T11:43:28;94197.59;;;25.98;56.64
12785;BME280;6456;42.680;23.260;2023-07-31T11:45:56;94213.00;;;25.89;51.86
12785;BME280;6456;42.680;23.260;2023-07-31T11:48:24;94271.34;;;26.10;53.89
12785;BME280;6456;42.680;23.260;2023-07-31T11:50:53;94236.59;;;25.83;55.58
12785;BME280;6456;42.680;23.260;2023-07-31T11:53:25;94288.84;;;26.30;56.22
12785;BME280;6456;42.680;23.260;2023-07-31T11:55:54;94184.94;;;25.73;55.48
12785;BME280;6456;42.680;23.260;2023-07-31T11:58:22;94183.03;;;25.73;54.29
12785;BME280;6456;42.680;23.260;2023-07-31T12:00:49;94170.97;;;25.88;55.19
12785;BME280;6456;42.680;23.260;2023-07-31T12:03:16;94224.25;;;25.99;56.82
12785;BME280;6456;42.680;23.260;2023-07-31T12:05:44;94221.69;;;26.03;57.26
12785;BME280;6456;42.680;23.260;2023-07-31T12:08:13;94282.94;;;26.62;59.26
12785;BME280;6456;42.680;23.260;2023-07-31T12:10:43;94205.34;;;26.42;57.23
12785;BME280;6456;42.680;23.260;2023-07-31T12:13:12;94281.72;;;27.06;58.99
12785;BME280;6456;42.680;23.260;2023-07-31T12:15:46;94217.19;;;26.58;57.32
12785;BME280;6456;42.680;23.260;2023-07-31T12:18:14;94273.94;;;27.05;56.89
12785;BME280;6456;42.680;23.260;2023-07-31T12:20:43;94281.97;;;27.22;53.59
12785;BME280;6456;42.680;23.260;2023-07-31T12:23:20;94255.88;;;27.26;54.16
12785;BME280;6456;42.680;23.260;2023-07-31T12:26:02;94244.06;;;27.10;52.49
12785;BME280;6456;42.680;23.260;2023-07-31T12:28:29;94278.91;;;27.32;49.40
12785;BME280;6456;42.680;23.260;2023-07-31T12:30:58;94241.84;;;27.03;51.10
12785;BME280;6456;42.680;23.260;2023-07-31T12:33:30;94255.53;;;27.36;52.25
12785;BME280;6456;42.680;23.260;2023-07-31T12:35:58;94269.69;;;27.33;50.14
12785;BME280;6456;42.680;23.260;2023-07-31T12:38:24;94280.06;;;27.60;49.03
12785;BME280;6456;42.680;23.260;2023-07-31T12:40:51;94204.56;;;27.26;48.67
12785;BME280;6456;42.680;23.260;2023-07-31T12:43:20;94251.59;;;27.63;49.15
12785;BME280;6456;42.680;23.260;2023-07-31T12:45:46;94200.59;;;27.23;49.25
12785;BME280;6456;42.680;23.260;2023-07-31T12:48:13;94195.34;;;27.27;48.42
12785;BME280;6456;42.680;23.260;2023-07-31T12:50:40;94202.94;;;27.33;48.44
12785;BME280;6456;42.680;23.260;2023-07-31T12:53:07;94188.72;;;27.16;49.31
12785;BME280;6456;42.680;23.260;2023-07-31T12:55:34;94265.25;;;27.87;48.37
12785;BME280;6456;42.680;23.260;2023-07-31T12:58:02;94175.13;;;27.62;47.63
12785;BME280;6456;42.680;23.260;2023-07-31T13:00:30;94249.78;;;28.17;49.36
12785;BME280;6456;42.680;23.260;2023-07-31T13:02:57;94213.75;;;27.83;47.63